Time;durP1;ratioP1;P1;durP2;ratioP2;P2;SDS_P1;SDS_P2;PMS_P1;PMS_P2;Temp;Humidity;BMP_temperature;BMP_pressure;BME280_temperature;BME280_humidity;BME280_pressure;Samples;Min_cycle;Max_cycle;Signal;HPM_P1;HPM_P2
2023/04/07 00:02:41;;;;;;;26.63;17.70;;;5.70;99.90;;;;;;5032805;28;20660;-70
2023/04/07 00:05:32;;;;;;;27.07;17.67;;;5.80;99.90;;;;;;5040915;28;20221;-69
2023/04/07 00:08:22;;;;;;;28.50;18.80;;;5.80;99.90;;;;;;5031219;28;20244;-69
2023/04/07 00:11:11;;;;;;;29.70;19.30;;;5.80;99.90;;;;;;5027400;28;20240;-73
2023/04/07 00:14:00;;;;;;;24.13;17.80;;;5.70;99.90;;;;;;5039253;28;20223;-69
2023/04/07 00:16:49;;;;;;;26.50;18.73;;;5.90;99.90;;;;;;5041292;28;20289;-68
2023/04/07 00:19:38;;;;;;;28.43;19.17;;;5.80;99.90;;;;;;5028432;28;20233;-70
2023/04/07 00:22:27;;;;;;;30.73;19.57;;;5.80;99.90;;;;;;5031277;28;20655;-71
2023/04/07 00:25:17;;;;;;;30.27;19.00;;;5.90;99.90;;;;;;5023094;28;20231;-70
2023/04/07 00:28:06;;;;;;;29.23;19.53;;;5.90;99.90;;;;;;5021029;28;20225;-70
2023/04/07 00:30:55;;;;;;;31.10;20.17;;;5.90;99.90;;;;;;5009418;28;20226;-68
2023/04/07 00:33:44;;;;;;;27.63;19.43;;;6.00;99.90;;;;;;5017665;28;20227;-68
2023/04/07 00:36:33;;;;;;;27.63;19.27;;;6.10;99.90;;;;;;5006864;28;20745;-71
2023/04/07 00:39:21;;;;;;;31.23;20.13;;;6.10;99.90;;;;;;5017094;28;20274;-69
2023/04/07 00:42:11;;;;;;;30.57;19.60;;;6.20;99.90;;;;;;5014314;28;20724;-70
2023/04/07 00:45:00;;;;;;;31.70;20.30;;;6.00;99.90;;;;;;5029537;28;20232;-71
2023/04/07 00:47:49;;;;;;;29.97;19.37;;;6.20;99.90;;;;;;5041960;28;20720;-70
2023/04/07 00:50:38;;;;;;;30.03;20.10;;;6.00;99.90;;;;;;5027349;28;20230;-70
2023/04/07 00:53:27;;;;;;;31.77;20.07;;;6.00;99.90;;;;;;5014874;28;20380;-70
2023/04/07 00:56:16;;;;;;;29.87;20.33;;;6.00;99.90;;;;;;5028204;28;20676;-70
2023/04/07 00:59:06;;;;;;;31.67;20.43;;;6.10;99.90;;;;;;5006831;28;20214;-69
2023/04/07 01:02:02;;;;;;;28.87;20.00;;;6.20;99.90;;;;;;5016124;28;20234;-72
2023/04/07 01:04:56;;;;;;;30.53;19.67;;;6.20;99.90;;;;;;5028015;28;20220;-71
2023/04/07 01:07:54;;;;;;;34.57;21.17;;;6.10;99.90;;;;;;5034944;28;20221;-71
2023/04/07 01:10:50;;;;;;;31.03;19.93;;;6.10;99.90;;;;;;5013554;28;20232;-71
2023/04/07 01:13:46;;;;;;;33.27;20.83;;;6.10;99.90;;;;;;5032969;28;20226;-74
2023/04/07 01:16:48;;;;;;;30.20;21.10;;;6.20;99.90;;;;;;5035750;28;20241;-71
2023/04/07 01:19:43;;;;;;;30.87;20.07;;;6.20;99.90;;;;;;5035195;28;20623;-70
2023/04/07 01:22:37;;;;;;;31.73;20.67;;;6.30;99.90;;;;;;5009698;28;20257;-69
2023/04/07 01:25:42;;;;;;;30.50;19.63;;;6.40;99.90;;;;;;4989288;28;20230;-74
2023/04/07 01:28:49;;;;;;;34.73;21.40;;;6.30;99.90;;;;;;4981167;28;20226;-73
2023/04/07 01:31:41;;;;;;;33.30;21.13;;;6.40;99.90;;;;;;4989404;28;20280;-70
2023/04/07 01:34:32;;;;;;;31.77;20.37;;;6.40;99.90;;;;;;4972430;28;20214;-72
2023/04/07 01:37:22;;;;;;;35.43;21.93;;;6.20;99.90;;;;;;4974371;28;20227;-71
2023/04/07 01:40:14;;;;;;;33.93;21.77;;;6.30;99.90;;;;;;4980713;28;20225;-71
2023/04/07 01:43:03;;;;;;;33.90;22.00;;;6.20;99.90;;;;;;4976959;28;20808;-71
2023/04/07 01:45:53;;;;;;;34.00;22.27;;;6.30;99.90;;;;;;4980233;28;20736;-72
2023/04/07 01:48:45;;;;;;;33.73;22.23;;;6.30;99.90;;;;;;4977588;28;20241;-71
2023/04/07 01:51:35;;;;;;;40.90;23.57;;;6.30;99.90;;;;;;4992158;28;20226;-71
2023/04/07 01:54:25;;;;;;;32.73;22.13;;;6.30;99.90;;;;;;4985791;28;20321;-70
2023/04/07 01:57:14;;;;;;;35.67;22.43;;;6.30;99.90;;;;;;4995727;28;20359;-70
2023/04/07 02:00:04;;;;;;;34.17;22.57;;;6.30;99.90;;;;;;5006760;28;20246;-72
2023/04/07 02:03:08;;;;;;;34.37;23.97;;;6.40;99.90;;;;;;4991218;28;20219;-70
2023/04/07 02:06:07;;;;;;;41.40;25.00;;;6.40;99.90;;;;;;4999746;28;20305;-71
2023/04/07 02:09:05;;;;;;;35.07;23.30;;;6.40;99.90;;;;;;4996641;28;20234;-71
2023/04/07 02:11:57;;;;;;;36.23;23.47;;;6.40;99.90;;;;;;5010008;28;20376;-70
2023/04/07 02:14:46;;;;;;;38.13;24.53;;;6.40;99.90;;;;;;5000326;28;20331;-70
2023/04/07 02:17:39;;;;;;;39.57;25.47;;;6.40;99.90;;;;;;4995168;28;20264;-70
2023/04/07 02:20:29;;;;;;;38.83;25.47;;;6.50;99.90;;;;;;4997085;28;20223;-70
2023/04/07 02:23:20;;;;;;;42.20;25.90;;;6.50;99.90;;;;;;5018373;28;20749;-71
2023/04/07 02:26:08;;;;;;;40.90;24.83;;;6.50;99.90;;;;;;5031692;28;20244;-73
2023/04/07 02:28:58;;;;;;;37.23;24.47;;;6.60;99.90;;;;;;5011026;28;20232;-72
2023/04/07 02:31:46;;;;;;;43.23;25.87;;;6.70;99.90;;;;;;5006115;28;20222;-72
2023/04/07 02:34:36;;;;;;;40.50;25.83;;;6.70;99.90;;;;;;5042622;28;20226;-73
2023/04/07 02:37:27;;;;;;;39.93;26.83;;;6.60;99.90;;;;;;5029760;28;20705;-70
2023/04/07 02:40:17;;;;;;;43.23;27.50;;;6.60;99.90;;;;;;5022666;28;20225;-71
2023/04/07 02:43:06;;;;;;;42.87;26.57;;;6.60;99.90;;;;;;5028394;28;20226;-70
2023/04/07 02:45:55;;;;;;;41.50;26.07;;;6.70;99.90;;;;;;5022849;28;20638;-70
2023/04/07 02:48:44;;;;;;;44.00;27.50;;;6.70;99.90;;;;;;5041690;28;20229;-70
2023/04/07 02:51:33;;;;;;;44.27;27.33;;;6.70;99.90;;;;;;5028374;28;20276;-69
2023/04/07 02:54:22;;;;;;;46.77;27.77;;;6.70;99.90;;;;;;5038217;28;20236;-69
2023/04/07 02:57:12;;;;;;;46.80;27.53;;;6.60;99.90;;;;;;5042231;28;20568;-70
2023/04/07 03:00:02;;;;;;;44.50;28.13;;;6.60;99.90;;;;;;5023292;28;20218;-70
2023/04/07 03:03:07;;;;;;;46.73;28.90;;;6.70;99.90;;;;;;5019521;28;20216;-71
2023/04/07 03:05:59;;;;;;;49.37;29.17;;;6.70;99.90;;;;;;5040188;28;20692;-71
2023/04/07 03:08:48;;;;;;;44.20;28.20;;;6.60;99.90;;;;;;5023989;28;20226;-70
2023/04/07 03:11:38;;;;;;;45.37;29.27;;;6.60;99.90;;;;;;5021396;28;20252;-70
2023/04/07 03:14:28;;;;;;;44.37;28.47;;;6.60;99.90;;;;;;5026943;28;20221;-70
2023/04/07 03:17:17;;;;;;;49.53;29.67;;;6.70;99.90;;;;;;5014963;28;20226;-67
2023/04/07 03:20:09;;;;;;;52.13;29.33;;;6.70;99.90;;;;;;5023420;28;20292;-71
2023/04/07 03:22:59;;;;;;;49.30;30.03;;;6.80;99.90;;;;;;5026418;28;20374;-69
2023/04/07 03:25:50;;;;;;;51.40;30.30;;;6.90;99.90;;;;;;5032322;28;20305;-69
2023/04/07 03:28:39;;;;;;;49.37;30.03;;;6.90;99.90;;;;;;5030391;28;20612;-70
2023/04/07 03:31:30;;;;;;;49.80;30.87;;;6.90;99.90;;;;;;5035775;28;20217;-70
2023/04/07 03:34:19;;;;;;;47.23;29.20;;;6.90;99.90;;;;;;5033853;28;20630;-66
2023/04/07 03:37:08;;;;;;;50.97;29.93;;;6.90;99.90;;;;;;5040778;28;20351;-67
2023/04/07 03:39:58;;;;;;;50.00;30.03;;;6.90;99.90;;;;;;5022757;28;20693;-67
2023/04/07 03:42:51;;;;;;;48.03;29.97;;;6.90;99.90;;;;;;5037636;28;20347;-66
2023/04/07 03:45:40;;;;;;;47.37;30.47;;;6.90;99.90;;;;;;5039279;28;20225;-68
2023/04/07 03:48:31;;;;;;;49.23;31.50;;;6.90;99.90;;;;;;5041444;28;20231;-67
2023/04/07 03:51:28;;;;;;;47.23;30.53;;;6.90;99.90;;;;;;5048564;28;20240;-68
2023/04/07 03:54:19;;;;;;;50.33;31.37;;;6.90;99.90;;;;;;5026388;28;20236;-68
2023/04/07 03:57:08;;;;;;;52.47;32.80;;;6.90;99.90;;;;;;5016989;28;20221;-68
2023/04/07 04:00:03;;;;;;;52.73;31.83;;;6.90;99.90;;;;;;5021511;28;20919;-68
2023/04/07 04:03:04;;;;;;;54.13;32.60;;;6.90;99.90;;;;;;5039900;28;20545;-71
2023/04/07 04:05:57;;;;;;;52.13;32.27;;;6.90;99.90;;;;;;5041496;28;20221;-72
2023/04/07 04:08:49;;;;;;;51.53;31.90;;;6.90;99.90;;;;;;5024829;28;20230;-72
2023/04/07 04:11:40;;;;;;;47.87;31.63;;;6.90;99.90;;;;;;5015087;28;20221;-70
2023/04/07 04:14:29;;;;;;;50.07;31.00;;;6.90;99.90;;;;;;5032339;28;20323;-70
2023/04/07 04:17:21;;;;;;;55.67;33.23;;;7.00;99.90;;;;;;5038198;28;20328;-70
2023/04/07 04:20:11;;;;;;;51.10;31.13;;;7.00;99.90;;;;;;5037149;28;20752;-70
2023/04/07 04:23:07;;;;;;;52.20;31.47;;;7.00;99.90;;;;;;5040152;28;20231;-68
2023/04/07 04:25:59;;;;;;;47.50;31.70;;;7.00;99.90;;;;;;5023188;28;20350;-71
2023/04/07 04:28:49;;;;;;;46.30;31.33;;;7.10;99.90;;;;;;5039922;28;20733;-69
2023/04/07 04:31:40;;;;;;;48.30;30.87;;;7.10;99.90;;;;;;5039587;28;20217;-69
2023/04/07 04:34:31;;;;;;;47.77;30.63;;;7.00;99.90;;;;;;5032610;28;20228;-72
2023/04/07 04:37:20;;;;;;;50.13;31.63;;;7.10;99.90;;;;;;5044609;28;20307;-68
2023/04/07 04:40:11;;;;;;;46.43;30.60;;;7.10;99.90;;;;;;5036981;28;20216;-69
2023/04/07 04:43:05;;;;;;;47.77;30.53;;;7.10;99.90;;;;;;5016733;28;20220;-68
2023/04/07 04:45:56;;;;;;;48.27;32.00;;;7.10;99.90;;;;;;5019987;28;20230;-69
2023/04/07 04:48:48;;;;;;;50.50;33.50;;;7.00;99.90;;;;;;5016808;28;20247;-69
2023/04/07 04:51:38;;;;;;;49.93;32.77;;;7.10;99.90;;;;;;5009603;28;20240;-70
2023/04/07 04:54:34;;;;;;;46.23;30.87;;;7.10;99.90;;;;;;5035565;28;20324;-69
2023/04/07 04:57:24;;;;;;;47.67;31.57;;;7.10;99.90;;;;;;5031507;28;20868;-70
2023/04/07 05:00:14;;;;;;;47.70;32.07;;;7.10;99.90;;;;;;5020765;28;20223;-71
2023/04/07 05:03:05;;;;;;;48.23;32.33;;;7.10;99.90;;;;;;5031953;28;20247;-72
2023/04/07 05:05:58;;;;;;;47.77;31.00;;;7.10;99.90;;;;;;5016414;28;20304;-68
2023/04/07 05:08:47;;;;;;;50.03;32.97;;;7.20;99.90;;;;;;5039078;28;20304;-70
2023/04/07 05:11:41;;;;;;;48.73;33.30;;;7.30;99.90;;;;;;5025673;28;20256;-70
2023/04/07 05:14:31;;;;;;;50.30;32.50;;;7.20;99.90;;;;;;5035128;28;20751;-70
2023/04/07 05:17:25;;;;;;;52.97;33.13;;;7.20;99.90;;;;;;5027482;28;20233;-70
2023/04/07 05:20:15;;;;;;;51.90;32.70;;;7.20;99.90;;;;;;5032063;28;20228;-69
2023/04/07 05:23:04;;;;;;;47.27;31.63;;;7.20;99.90;;;;;;5030937;28;20920;-70
2023/04/07 05:25:54;;;;;;;53.30;34.13;;;7.20;99.90;;;;;;5027975;28;20219;-70
2023/04/07 05:28:44;;;;;;;60.53;37.90;;;7.20;99.90;;;;;;5019049;28;20676;-69
2023/04/07 05:31:40;;;;;;;54.57;34.13;;;7.20;99.90;;;;;;5026815;28;20235;-69
2023/04/07 05:34:33;;;;;;;54.80;34.20;;;7.20;99.90;;;;;;5030524;28;20220;-70
2023/04/07 05:37:21;;;;;;;52.23;33.27;;;7.30;99.90;;;;;;5017591;28;20242;-70
2023/04/07 05:40:12;;;;;;;55.20;33.80;;;7.30;99.90;;;;;;5035378;28;20250;-69
2023/04/07 05:43:02;;;;;;;48.60;31.37;;;7.30;99.90;;;;;;5027246;28;20746;-70
2023/04/07 05:45:52;;;;;;;48.67;33.73;;;7.30;99.90;;;;;;5034013;28;20608;-68
2023/04/07 05:48:44;;;;;;;46.70;32.03;;;7.30;99.90;;;;;;5009294;28;20217;-69
2023/04/07 05:51:34;;;;;;;51.07;34.47;;;7.30;99.90;;;;;;5036530;28;20272;-69
2023/04/07 05:54:29;;;;;;;46.60;32.40;;;7.40;99.90;;;;;;5020102;28;20235;-70
2023/04/07 05:57:18;;;;;;;50.13;32.87;;;7.30;99.90;;;;;;5020138;28;20268;-70
2023/04/07 06:00:10;;;;;;;45.63;32.57;;;7.50;99.90;;;;;;5004033;28;20812;-71
2023/04/07 06:03:02;;;;;;;45.60;31.10;;;7.50;99.90;;;;;;5017811;28;20741;-68
2023/04/07 06:06:00;;;;;;;45.97;31.67;;;7.50;99.90;;;;;;5032350;28;20683;-70
2023/04/07 06:08:49;;;;;;;51.23;33.83;;;7.60;99.90;;;;;;5021676;28;20229;-69
2023/04/07 06:11:38;;;;;;;47.23;32.40;;;7.60;99.90;;;;;;5021653;28;20864;-66
2023/04/07 06:14:27;;;;;;;47.00;31.53;;;7.50;99.90;;;;;;5031542;28;20229;-68
2023/04/07 06:17:16;;;;;;;46.57;31.07;;;7.50;99.90;;;;;;5041418;28;20215;-74
2023/04/07 06:20:08;;;;;;;48.07;31.57;;;7.60;99.90;;;;;;5022381;28;20271;-69
2023/04/07 06:22:58;;;;;;;46.57;31.73;;;7.60;99.90;;;;;;5032996;28;20223;-69
2023/04/07 06:25:50;;;;;;;47.90;31.90;;;7.60;99.90;;;;;;5020963;28;20336;-71
2023/04/07 06:28:39;;;;;;;50.10;32.13;;;7.70;99.90;;;;;;5033445;28;20229;-74
2023/04/07 06:31:29;;;;;;;45.13;31.40;;;7.70;99.90;;;;;;5008314;28;20316;-72
2023/04/07 06:34:18;;;;;;;45.33;31.70;;;7.70;99.90;;;;;;5015950;28;20244;-72
2023/04/07 06:37:07;;;;;;;44.70;30.80;;;7.70;99.90;;;;;;5016960;28;20225;-69
2023/04/07 06:39:57;;;;;;;43.57;30.83;;;7.70;99.90;;;;;;5017943;28;22063;-72
2023/04/07 06:42:46;;;;;;;44.53;30.83;;;7.70;99.90;;;;;;5037888;28;20234;-69
2023/04/07 06:45:46;;;;;;;44.57;30.37;;;7.70;99.90;;;;;;5016938;28;20302;-70
2023/04/07 06:48:35;;;;;;;43.57;31.23;;;7.80;99.90;;;;;;5011517;28;20262;-76
2023/04/07 06:51:23;;;;;;;43.70;31.37;;;7.90;99.90;;;;;;5021444;28;20312;-70
2023/04/07 06:54:13;;;;;;;41.37;29.53;;;8.00;99.90;;;;;;5035848;28;20224;-71
2023/04/07 06:57:05;;;;;;;43.27;31.17;;;8.00;99.90;;;;;;5038528;28;20323;-72
2023/04/07 06:59:54;;;;;;;39.77;30.90;;;7.90;99.90;;;;;;5033355;28;20246;-72
2023/04/07 07:02:43;;;;;;;46.27;31.57;;;8.00;99.90;;;;;;5035630;28;20337;-70
2023/04/07 07:05:32;;;;;;;50.50;32.47;;;8.00;99.90;;;;;;5036277;28;20220;-71
2023/04/07 07:08:21;;;;;;;44.17;30.23;;;8.20;99.90;;;;;;5016244;28;20244;-73
2023/04/07 07:11:10;;;;;;;45.40;32.37;;;8.20;99.90;;;;;;5002396;28;20861;-72
2023/04/07 07:14:01;;;;;;;41.27;30.37;;;8.30;99.90;;;;;;5037526;28;20220;-71
2023/04/07 07:16:50;;;;;;;39.67;30.20;;;8.40;99.90;;;;;;5036673;28;20945;-69
2023/04/07 07:19:39;;;;;;;42.53;29.70;;;8.40;99.90;;;;;;5036993;28;20277;-70
2023/04/07 07:22:28;;;;;;;38.83;29.00;;;8.30;99.90;;;;;;5023095;28;20220;-69
2023/04/07 07:25:17;;;;;;;41.17;30.37;;;8.40;99.90;;;;;;5009736;28;20228;-71
2023/04/07 07:28:06;;;;;;;41.73;29.37;;;8.50;99.90;;;;;;5018125;28;20229;-71
2023/04/07 07:30:56;;;;;;;38.23;29.83;;;8.50;99.90;;;;;;5013642;28;20225;-74
2023/04/07 07:33:47;;;;;;;41.33;30.07;;;8.40;99.90;;;;;;5038074;28;20764;-74
2023/04/07 07:36:37;;;;;;;36.60;28.43;;;8.50;99.90;;;;;;5033298;28;20242;-71
2023/04/07 07:39:25;;;;;;;41.37;28.10;;;8.50;99.90;;;;;;5030267;28;20248;-72
2023/04/07 07:42:15;;;;;;;42.17;29.47;;;8.60;99.90;;;;;;5029676;28;20420;-72
2023/04/07 07:45:04;;;;;;;39.43;28.57;;;8.60;99.90;;;;;;5015408;28;20284;-73
2023/04/07 07:47:54;;;;;;;42.50;28.93;;;8.50;99.90;;;;;;5029532;28;20763;-73
2023/04/07 07:50:44;;;;;;;42.80;28.27;;;8.60;99.90;;;;;;5015511;28;20228;-74
2023/04/07 07:53:33;;;;;;;43.03;28.73;;;8.70;99.90;;;;;;5037272;28;20231;-74
2023/04/07 07:56:22;;;;;;;42.00;27.80;;;8.70;99.90;;;;;;5030236;28;20639;-73
2023/04/07 07:59:11;;;;;;;41.27;27.87;;;8.70;99.90;;;;;;5035584;28;20659;-71
2023/04/07 08:02:00;;;;;;;39.43;27.73;;;8.70;99.90;;;;;;5022643;28;20588;-70
2023/04/07 08:04:51;;;;;;;39.03;27.23;;;8.80;99.90;;;;;;5027674;28;20773;-70
2023/04/07 08:07:41;;;;;;;36.40;26.03;;;9.00;99.90;;;;;;5013071;28;20251;-69
2023/04/07 08:10:30;;;;;;;37.63;26.93;;;9.00;99.90;;;;;;5025194;28;20931;-72
2023/04/07 08:13:19;;;;;;;36.40;27.57;;;9.10;99.90;;;;;;5029069;28;20235;-79
2023/04/07 08:16:08;;;;;;;35.70;26.93;;;9.20;99.90;;;;;;5034123;28;20255;-69
2023/04/07 08:18:57;;;;;;;35.17;26.17;;;9.10;99.90;;;;;;5033413;28;20369;-74
2023/04/07 08:21:48;;;;;;;34.90;26.75;;;9.20;99.90;;;;;;5017286;28;20223;-72
2023/04/07 08:24:37;;;;;;;37.13;26.70;;;9.40;99.90;;;;;;5032314;28;20233;-71
2023/04/07 08:27:26;;;;;;;34.13;24.67;;;9.40;99.90;;;;;;5020045;28;20248;-72
2023/04/07 08:30:15;;;;;;;33.63;24.35;;;9.70;99.90;;;;;;5036880;28;20221;-73
2023/04/07 08:33:06;;;;;;;33.42;24.45;;;9.70;99.90;;;;;;5011043;28;20307;-70
2023/04/07 08:35:55;;;;;;;34.58;23.02;;;9.70;99.90;;;;;;5020880;28;20237;-71
2023/04/07 08:38:45;;;;;;;37.03;24.77;;;9.60;99.90;;;;;;5016616;28;20264;-71
2023/04/07 08:41:38;;;;;;;32.55;22.73;;;9.60;99.90;;;;;;5017006;28;20232;-69
2023/04/07 08:44:29;;;;;;;31.17;23.38;;;9.50;99.90;;;;;;5017419;28;20222;-71
2023/04/07 08:47:18;;;;;;;31.83;22.00;;;9.50;99.90;;;;;;5009405;28;20230;-72
2023/04/07 08:50:09;;;;;;;28.85;22.65;;;9.60;99.90;;;;;;5015287;28;20237;-71
2023/04/07 08:53:03;;;;;;;38.55;23.80;;;9.60;99.90;;;;;;5010146;28;20308;-71
2023/04/07 08:55:56;;;;;;;29.92;22.20;;;9.70;99.90;;;;;;5019906;28;20233;-68
2023/04/07 08:58:46;;;;;;;30.40;22.52;;;9.80;99.90;;;;;;5035939;28;20240;-73
2023/04/07 09:01:36;;;;;;;32.25;22.52;;;9.90;99.90;;;;;;5034028;28;20359;-75
2023/04/07 09:04:26;;;;;;;29.88;21.77;;;9.70;99.90;;;;;;5029216;28;21190;-79
2023/04/07 09:07:15;;;;;;;28.10;21.95;;;9.60;99.90;;;;;;5036918;28;20228;-76
2023/04/07 09:10:05;;;;;;;30.58;21.95;;;9.60;99.90;;;;;;5037453;28;20850;-79
2023/04/07 09:12:55;;;;;;;26.35;21.52;;;9.70;99.90;;;;;;5036108;28;20298;-74
2023/04/07 09:15:44;;;;;;;33.67;21.95;;;9.60;99.90;;;;;;5017467;28;20228;-77
2023/04/07 09:18:33;;;;;;;28.23;22.10;;;9.70;99.90;;;;;;5021221;28;20225;-75
2023/04/07 09:21:22;;;;;;;29.88;21.17;;;9.80;99.90;;;;;;5016049;28;20763;-76
2023/04/07 09:24:22;;;;;;;27.73;21.08;;;9.90;99.90;;;;;;5003729;28;20229;-76
2023/04/07 09:27:15;;;;;;;30.65;22.08;;;10.00;99.90;;;;;;5027703;28;21717;-77
2023/04/07 09:30:14;;;;;;;32.00;21.98;;;10.10;99.90;;;;;;5020108;28;20235;-76
2023/04/07 09:33:03;;;;;;;27.38;21.60;;;10.00;99.90;;;;;;5018766;28;20255;-78
2023/04/07 09:35:53;;;;;;;33.05;22.10;;;10.10;99.90;;;;;;5031562;28;20775;-78
2023/04/07 09:38:44;;;;;;;26.80;21.00;;;10.20;99.90;;;;;;5027070;28;20228;-75
2023/04/07 09:41:33;;;;;;;28.27;21.48;;;10.00;99.90;;;;;;5032839;28;20330;-73
2023/04/07 09:44:23;;;;;;;26.88;20.65;;;10.00;99.90;;;;;;5030021;28;20410;-77
2023/04/07 09:47:14;;;;;;;32.95;20.75;;;10.00;99.90;;;;;;5017199;28;20292;-73
2023/04/07 09:50:05;;;;;;;27.08;19.73;;;10.20;99.90;;;;;;5021377;28;20242;-73
2023/04/07 09:52:55;;;;;;;26.27;20.23;;;10.30;99.90;;;;;;5016226;28;21012;-74
2023/04/07 09:55:45;;;;;;;30.23;20.38;;;10.40;99.90;;;;;;5033424;28;20624;-76
2023/04/07 09:58:34;;;;;;;35.28;20.38;;;10.30;99.90;;;;;;5037418;28;20224;-75
2023/04/07 10:01:22;;;;;;;28.58;20.27;;;10.50;99.90;;;;;;5035878;28;20467;-76
2023/04/07 10:04:13;;;;;;;27.02;20.52;;;10.50;99.90;;;;;;5038575;28;20225;-75
2023/04/07 10:07:03;;;;;;;33.55;22.67;;;10.50;99.90;;;;;;5039847;28;20225;-77
2023/04/07 10:09:52;;;;;;;29.10;23.58;;;10.60;99.90;;;;;;5040487;28;20319;-71
2023/04/07 10:12:42;;;;;;;29.90;24.13;;;10.60;99.90;;;;;;5043009;28;20225;-84
2023/04/07 10:15:31;;;;;;;31.70;25.08;;;10.50;99.90;;;;;;5044866;28;20231;-78
2023/04/07 10:18:22;;;;;;;32.58;25.55;;;10.60;99.90;;;;;;5043320;28;20236;-78
2023/04/07 10:21:15;;;;;;;33.95;24.88;;;10.60;99.90;;;;;;5041464;28;20212;-80
2023/04/07 10:24:18;;;;;;;30.63;24.40;;;10.70;99.90;;;;;;5045061;28;20232;-78
2023/04/07 10:27:13;;;;;;;30.95;24.83;;;10.70;99.90;;;;;;5045066;28;20618;-77
2023/04/07 10:30:03;;;;;;;29.67;23.27;;;10.90;99.90;;;;;;5031482;28;20221;-79
2023/04/07 10:32:54;;;;;;;29.25;20.55;;;10.90;99.90;;;;;;5048156;28;20278;-75
2023/04/07 10:36:05;;;;;;;29.10;22.08;;;10.90;99.90;;;;;;5012121;28;20320;-74
2023/04/07 10:39:21;;;;;;;25.85;19.52;;;10.90;99.90;;;;;;5031822;28;20221;-75
2023/04/07 10:42:47;;;;;;;27.92;20.65;;;10.90;99.90;;;;;;5026035;28;20224;-79
2023/04/07 10:45:53;;;;;;;25.00;20.52;;;10.90;99.90;;;;;;5032624;28;20228;-76
2023/04/07 10:48:42;;;;;;;23.88;19.70;;;10.90;99.90;;;;;;5030125;28;20220;-77
2023/04/07 10:51:31;;;;;;;25.63;18.98;;;11.00;99.90;;;;;;5035396;28;20553;-73
2023/04/07 10:54:25;;;;;;;22.00;18.35;;;11.10;99.90;;;;;;5031652;28;20241;-76
2023/04/07 10:57:17;;;;;;;23.05;17.20;;;11.20;99.90;;;;;;5007101;28;20342;-75
2023/04/07 11:00:16;;;;;;;23.58;18.17;;;11.20;99.90;;;;;;5021252;28;20233;-77
2023/04/07 11:03:12;;;;;;;23.13;17.95;;;11.20;99.90;;;;;;5032755;28;20316;-76
2023/04/07 11:06:07;;;;;;;23.58;17.70;;;11.30;99.90;;;;;;5039878;28;20212;-76
2023/04/07 11:08:56;;;;;;;21.00;16.33;;;11.30;99.90;;;;;;5041305;28;20263;-76
2023/04/07 11:11:47;;;;;;;21.35;16.17;;;11.30;99.90;;;;;;5035462;28;20229;-76
2023/04/07 11:14:36;;;;;;;19.70;15.65;;;11.50;99.90;;;;;;5042390;28;20212;-76
2023/04/07 11:17:27;;;;;;;19.85;15.43;;;11.60;99.90;;;;;;5042484;28;20221;-76
2023/04/07 11:20:15;;;;;;;21.73;15.88;;;11.60;99.90;;;;;;5033320;28;20249;-76
2023/04/07 11:23:04;;;;;;;18.83;15.00;;;11.70;99.90;;;;;;5019891;28;20288;-76
2023/04/07 11:26:00;;;;;;;17.10;14.70;;;11.70;99.90;;;;;;5040603;28;20225;-76
2023/04/07 11:28:51;;;;;;;19.65;15.07;;;11.80;99.90;;;;;;5030050;28;20294;-76
2023/04/07 11:31:40;;;;;;;24.08;15.73;;;11.70;99.90;;;;;;5001987;28;20709;-76
2023/04/07 11:34:30;;;;;;;18.98;15.40;;;11.80;99.90;;;;;;5034800;28;20260;-76
2023/04/07 11:37:20;;;;;;;19.13;15.70;;;11.70;99.90;;;;;;5015349;28;20221;-76
2023/04/07 11:40:11;;;;;;;18.30;15.05;;;11.80;99.90;;;;;;5019045;28;20221;-76
2023/04/07 11:43:01;;;;;;;19.45;15.65;;;11.80;99.90;;;;;;5019699;28;20302;-76
2023/04/07 11:46:09;;;;;;;18.25;14.18;;;11.70;99.90;;;;;;5025235;28;20233;-75
2023/04/07 11:49:09;;;;;;;19.85;14.38;;;11.80;99.90;;;;;;5023084;28;20233;-76
2023/04/07 11:51:59;;;;;;;21.35;13.95;;;11.80;99.90;;;;;;5032588;28;20573;-75
2023/04/07 11:54:49;;;;;;;17.27;14.07;;;11.70;99.90;;;;;;5037138;28;20227;-76
2023/04/07 11:57:38;;;;;;;18.10;14.00;;;11.70;99.90;;;;;;5035506;28;20890;-76
2023/04/07 12:00:26;;;;;;;16.52;13.02;;;11.80;99.90;;;;;;5041440;28;20237;-76
2023/04/07 12:03:17;;;;;;;17.17;14.02;;;11.70;99.90;;;;;;5026509;28;20232;-76
2023/04/07 12:06:07;;;;;;;14.85;13.32;;;11.50;99.90;;;;;;5037156;28;20236;-76
2023/04/07 12:08:56;;;;;;;15.85;13.52;;;11.40;99.90;;;;;;5033804;28;20298;-75
2023/04/07 12:11:49;;;;;;;14.30;12.55;;;11.40;99.90;;;;;;5022011;28;20249;-78
2023/04/07 12:14:38;;;;;;;16.55;13.23;;;11.60;99.90;;;;;;5024659;28;20295;-78
2023/04/07 12:17:27;;;;;;;16.58;13.57;;;11.60;99.90;;;;;;5034650;28;20225;-75
2023/04/07 12:20:18;;;;;;;17.63;14.13;;;11.60;99.90;;;;;;5032823;28;20209;-76
2023/04/07 12:23:06;;;;;;;19.08;13.95;;;11.70;99.90;;;;;;5031129;28;20225;-77
2023/04/07 12:25:55;;;;;;;15.15;13.30;;;11.80;99.90;;;;;;5023075;28;20324;-77
2023/04/07 12:28:44;;;;;;;15.93;14.23;;;11.90;99.90;;;;;;5032729;28;20293;-76
2023/04/07 12:31:33;;;;;;;16.70;13.73;;;11.80;99.90;;;;;;5030113;28;20251;-76
2023/04/07 12:34:22;;;;;;;17.70;14.40;;;12.00;99.90;;;;;;5033146;28;20225;-76
2023/04/07 12:37:12;;;;;;;19.27;14.57;;;12.10;99.90;;;;;;5040368;28;20221;-76
2023/04/07 12:40:01;;;;;;;16.95;14.45;;;11.90;99.90;;;;;;5036304;28;20298;-76
2023/04/07 12:42:49;;;;;;;16.45;13.30;;;11.90;99.90;;;;;;5042189;28;20240;-76
2023/04/07 12:45:38;;;;;;;15.70;12.38;;;12.00;99.90;;;;;;5042197;28;20241;-76
2023/04/07 12:48:27;;;;;;;11.57;9.43;;;12.10;99.90;;;;;;5026505;28;20287;-76
2023/04/07 12:51:16;;;;;;;11.45;9.55;;;12.20;99.90;;;;;;5028874;28;20307;-75
2023/04/07 12:54:06;;;;;;;8.27;6.43;;;12.40;99.90;;;;;;5033809;28;20235;-78
2023/04/07 12:56:56;;;;;;;8.48;6.65;;;12.30;99.90;;;;;;5020412;28;20240;-77
2023/04/07 12:59:45;;;;;;;8.20;5.38;;;12.30;99.90;;;;;;5008218;28;20218;-76
2023/04/07 13:02:36;;;;;;;4.38;3.53;;;12.20;99.90;;;;;;5007864;28;20230;-75
2023/04/07 13:05:26;;;;;;;4.43;3.22;;;12.30;99.90;;;;;;5019704;28;20295;-70
2023/04/07 13:08:15;;;;;;;5.35;3.25;;;12.30;99.90;;;;;;5024820;28;20219;-79
2023/04/07 13:11:05;;;;;;;4.07;3.30;;;12.30;99.90;;;;;;5025028;28;20229;-78
2023/04/07 13:13:55;;;;;;;6.85;3.50;;;12.30;99.90;;;;;;5014899;28;20233;-81
2023/04/07 13:16:47;;;;;;;7.05;3.10;;;12.50;99.90;;;;;;5034758;28;20244;-79
2023/04/07 13:19:36;;;;;;;4.22;3.13;;;12.30;99.90;;;;;;5033970;28;20414;-79
2023/04/07 13:22:25;;;;;;;6.63;3.00;;;12.20;99.90;;;;;;5036086;28;20225;-79
2023/04/07 13:25:14;;;;;;;3.85;2.67;;;12.30;99.90;;;;;;5037000;28;20225;-78
2023/04/07 13:28:05;;;;;;;4.38;3.05;;;12.20;99.90;;;;;;5023601;28;20704;-78
2023/04/07 13:30:54;;;;;;;4.45;3.42;;;12.00;99.90;;;;;;5034107;28;20225;-80
2023/04/07 13:33:43;;;;;;;4.43;3.10;;;11.90;99.90;;;;;;5028385;28;20224;-81
2023/04/07 13:36:32;;;;;;;5.40;3.45;;;12.00;99.90;;;;;;5037545;28;20235;-78
2023/04/07 13:39:21;;;;;;;4.60;3.13;;;11.80;99.90;;;;;;5037416;28;20236;-75
2023/04/07 13:42:10;;;;;;;6.82;3.33;;;11.80;99.90;;;;;;5008350;28;20332;-78
2023/04/07 13:45:02;;;;;;;4.75;3.03;;;11.90;99.90;;;;;;4996692;28;20597;-78
2023/04/07 13:47:50;;;;;;;5.88;3.72;;;12.00;99.90;;;;;;5023466;28;20429;-78
2023/04/07 13:50:40;;;;;;;4.80;3.40;;;12.00;99.90;;;;;;5027903;28;20687;-80
2023/04/07 13:53:29;;;;;;;5.03;3.35;;;12.00;99.90;;;;;;5017388;28;20294;-78
2023/04/07 13:56:18;;;;;;;5.13;3.03;;;12.10;99.90;;;;;;5018062;28;20224;-84
2023/04/07 13:59:08;;;;;;;3.83;3.28;;;11.90;99.90;;;;;;5028912;28;21099;-74
2023/04/07 14:01:58;;;;;;;5.10;3.20;;;12.20;99.90;;;;;;5044955;28;20225;-78
2023/04/07 14:04:48;;;;;;;3.95;3.03;;;12.00;99.90;;;;;;5028754;28;20240;-80
2023/04/07 14:07:37;;;;;;;6.38;3.53;;;11.90;99.90;;;;;;5034034;28;20379;-79
2023/04/07 14:10:26;;;;;;;5.15;3.65;;;12.10;99.90;;;;;;5020278;28;20377;-82
2023/04/07 14:13:15;;;;;;;5.32;3.83;;;12.20;99.90;;;;;;5036278;28;20393;-80
2023/04/07 14:16:05;;;;;;;7.32;3.85;;;12.30;99.90;;;;;;5037739;28;20217;-78
2023/04/07 14:19:21;;;;;;;5.60;3.85;;;12.10;99.90;;;;;;5043835;28;20326;-82
2023/04/07 14:22:10;;;;;;;6.20;4.03;;;12.30;99.90;;;;;;5025424;28;20228;-81
2023/04/07 14:24:59;;;;;;;5.72;3.92;;;12.20;99.90;;;;;;5038172;28;20588;-77
2023/04/07 14:27:48;;;;;;;7.75;3.95;;;11.90;99.90;;;;;;5040932;28;20285;-76
2023/04/07 14:30:38;;;;;;;5.75;3.80;;;11.90;99.90;;;;;;5037699;28;20235;-81
2023/04/07 14:33:26;;;;;;;5.47;3.80;;;11.80;99.90;;;;;;5031468;28;20790;-75
2023/04/07 14:36:17;;;;;;;5.03;3.47;;;11.80;99.90;;;;;;5020473;28;20702;-78
2023/04/07 14:39:05;;;;;;;4.88;3.25;;;11.90;99.90;;;;;;5023888;28;20339;-78